createdAt,value
2022-10-09T00:02:23.640Z,3.80
2022-10-09T00:04:54.358Z,3.80
2022-10-09T00:07:25.197Z,3.30
2022-10-09T00:09:55.886Z,3.10
2022-10-09T00:12:26.898Z,3.30
2022-10-09T00:14:57.518Z,3.70
2022-10-09T00:17:28.555Z,3.50
2022-10-09T00:19:59.167Z,3.40
2022-10-09T00:22:30.732Z,2.90
2022-10-09T00:25:01.386Z,3.50
2022-10-09T00:27:32.265Z,2.90
2022-10-09T00:30:03.242Z,3.40
2022-10-09T00:32:33.910Z,2.80
2022-10-09T00:35:05.068Z,3.40
2022-10-09T00:37:35.676Z,3.60
2022-10-09T00:40:07.447Z,3.50
2022-10-09T00:42:38.106Z,3.00
2022-10-09T00:45:18.352Z,3.30
2022-10-09T00:47:52.543Z,3.20
2022-10-09T00:50:27.675Z,3.20
2022-10-09T00:53:01.505Z,2.90
2022-10-09T00:55:35.791Z,3.00
2022-10-09T00:58:07.052Z,2.80
2022-10-09T01:00:38.116Z,2.80
2022-10-09T01:03:09.163Z,2.80
2022-10-09T01:05:53.631Z,3.40
2022-10-09T01:08:31.497Z,2.90
2022-10-09T01:11:10.755Z,3.10
2022-10-09T01:13:48.459Z,3.10
2022-10-09T01:16:26.725Z,2.90
2022-10-09T01:19:03.242Z,2.80
2022-10-09T01:21:40.702Z,2.90
2022-10-09T01:24:26.080Z,2.90
2022-10-09T01:27:12.080Z,2.90
2022-10-09T01:29:46.439Z,3.00
2022-10-09T01:32:21.234Z,2.80
2022-10-09T01:34:54.517Z,3.40
2022-10-09T01:37:26.384Z,2.80
2022-10-09T01:39:57.405Z,2.40
2022-10-09T01:42:30.433Z,2.80
2022-10-09T01:45:01.528Z,3.00
2022-10-09T01:47:32.200Z,2.80
2022-10-09T01:50:10.189Z,2.60
2022-10-09T01:52:49.206Z,3.00
2022-10-09T01:55:32.407Z,2.60
2022-10-09T01:58:12.096Z,2.60
2022-10-09T02:03:17.357Z,2.20
2022-10-09T02:05:53.004Z,2.80
2022-10-09T02:08:25.484Z,2.80
2022-10-09T02:11:00.698Z,2.50
2022-10-09T02:13:32.965Z,2.90
2022-10-09T02:16:12.407Z,2.40
2022-10-09T02:18:47.041Z,2.50
2022-10-09T02:21:22.176Z,2.80
2022-10-09T02:23:55.598Z,2.50
2022-10-09T02:26:27.749Z,2.60
2022-10-09T02:29:00.167Z,2.40
2022-10-09T02:31:33.563Z,2.20
2022-10-09T02:34:07.042Z,2.60
2022-10-09T02:36:38.603Z,2.80
2022-10-09T02:39:10.875Z,2.50
2022-10-09T02:41:41.637Z,2.40
2022-10-09T02:44:12.452Z,2.70
2022-10-09T02:46:43.247Z,2.60
2022-10-09T02:49:14.232Z,2.60
2022-10-09T02:51:44.862Z,2.60
2022-10-09T02:54:16.342Z,2.40
2022-10-09T02:56:47.008Z,2.40
2022-10-09T02:59:18.328Z,2.70
2022-10-09T03:01:49.104Z,1.70
2022-10-09T03:04:20.094Z,2.50
2022-10-09T03:06:50.862Z,2.30
2022-10-09T03:09:21.876Z,2.40
2022-10-09T03:11:52.816Z,2.60
2022-10-09T03:14:23.410Z,2.30
2022-10-09T03:16:54.091Z,2.90
2022-10-09T03:19:24.975Z,2.10
2022-10-09T03:21:55.607Z,2.60
2022-10-09T03:24:26.408Z,1.90
2022-10-09T03:26:57.012Z,2.70
2022-10-09T03:29:27.983Z,2.60
2022-10-09T03:31:58.882Z,2.60
2022-10-09T03:34:29.562Z,2.70
2022-10-09T03:37:00.222Z,2.90
2022-10-09T03:39:30.794Z,2.40
2022-10-09T03:42:01.620Z,2.80
2022-10-09T03:44:32.315Z,2.20
2022-10-09T03:47:03.124Z,2.10
2022-10-09T03:49:34.095Z,2.20
2022-10-09T03:52:04.833Z,2.50
2022-10-09T03:54:35.470Z,1.90
2022-10-09T03:57:06.211Z,2.10
2022-10-09T03:59:36.835Z,2.70
2022-10-09T04:02:07.613Z,1.90
2022-10-09T04:04:38.215Z,2.70
2022-10-09T04:07:09.445Z,2.10
2022-10-09T04:09:40.173Z,2.10
2022-10-09T04:12:10.837Z,2.30
2022-10-09T04:14:41.474Z,2.10
2022-10-09T04:17:12.109Z,2.40
2022-10-09T04:19:42.846Z,2.20
2022-10-09T04:22:13.692Z,2.50
2022-10-09T04:24:44.528Z,2.30
2022-10-09T04:27:15.376Z,2.40
2022-10-09T04:29:45.976Z,2.50
2022-10-09T04:32:16.660Z,2.20
2022-10-09T04:34:47.469Z,2.00
2022-10-09T04:37:18.221Z,2.30
2022-10-09T04:39:48.904Z,2.70
2022-10-09T04:42:19.530Z,2.20
2022-10-09T04:44:50.120Z,2.60
2022-10-09T04:47:20.968Z,2.10
2022-10-09T04:49:51.804Z,2.30
2022-10-09T04:52:22.494Z,2.10
2022-10-09T04:54:53.180Z,2.40
2022-10-09T04:57:23.807Z,2.20
2022-10-09T04:59:54.453Z,2.30
2022-10-09T05:02:25.236Z,2.10
2022-10-09T05:04:57.362Z,1.90
2022-10-09T05:07:28.098Z,2.30
2022-10-09T05:09:58.732Z,2.50
2022-10-09T05:12:29.655Z,2.10
2022-10-09T05:15:00.631Z,2.00
2022-10-09T05:17:31.456Z,1.90
2022-10-09T05:20:02.604Z,1.90
2022-10-09T05:22:33.271Z,2.30
2022-10-09T05:25:04.182Z,2.20
2022-10-09T05:27:34.877Z,2.20
2022-10-09T05:30:06.853Z,2.30
2022-10-09T05:32:37.624Z,2.00
2022-10-09T05:35:09.835Z,2.20
2022-10-09T05:37:40.474Z,2.10
2022-10-09T05:40:12.388Z,2.10
2022-10-09T05:42:43.040Z,2.50
2022-10-09T05:45:14.796Z,2.30
2022-10-09T05:47:46.269Z,2.10
2022-10-09T05:50:17.491Z,2.20
2022-10-09T05:52:48.339Z,2.40
2022-10-09T05:55:19.451Z,2.20
2022-10-09T05:57:50.844Z,2.40
2022-10-09T06:00:21.986Z,2.10
2022-10-09T06:02:53.040Z,2.50
2022-10-09T06:05:24.279Z,2.00
2022-10-09T06:07:55.225Z,2.30
2022-10-09T06:10:31.453Z,2.10
2022-10-09T06:13:03.248Z,2.30
2022-10-09T06:15:34.130Z,2.50
2022-10-09T06:18:05.126Z,2.20
2022-10-09T06:20:35.872Z,2.40
2022-10-09T06:23:06.834Z,2.10
2022-10-09T06:25:37.553Z,2.10
2022-10-09T06:28:08.335Z,2.00
2022-10-09T06:30:39.231Z,2.20
2022-10-09T06:33:10.276Z,2.00
2022-10-09T06:35:41.191Z,2.00
2022-10-09T06:38:11.891Z,2.20
2022-10-09T06:40:42.568Z,2.00
2022-10-09T06:43:13.278Z,2.40
2022-10-09T06:45:44.010Z,2.00
2022-10-09T06:48:14.822Z,2.20
2022-10-09T06:50:45.757Z,1.90
2022-10-09T06:53:16.498Z,2.10
2022-10-09T06:55:55.737Z,2.40
2022-10-09T06:58:26.793Z,2.00
2022-10-09T07:01:07.900Z,2.60
2022-10-09T07:03:40.213Z,3.00
2022-10-09T07:06:12.749Z,2.50
2022-10-09T07:08:45.200Z,3.00
2022-10-09T07:11:20.963Z,3.40
2022-10-09T07:13:53.135Z,3.20
2022-10-09T07:16:25.957Z,3.10
2022-10-09T07:18:57.274Z,3.50
2022-10-09T07:21:28.082Z,3.60
2022-10-09T07:24:00.583Z,4.20
2022-10-09T07:26:34.092Z,3.90
2022-10-09T07:29:06.764Z,3.90
2022-10-09T07:31:37.708Z,3.80
2022-10-09T07:34:08.765Z,4.20
2022-10-09T07:36:39.665Z,3.90
2022-10-09T07:39:10.755Z,3.60
2022-10-09T07:41:41.428Z,4.40
2022-10-09T07:44:12.515Z,4.60
2022-10-09T07:46:43.231Z,4.30
2022-10-09T07:49:14.168Z,5.30
2022-10-09T07:51:45.422Z,4.50
2022-10-09T07:54:16.388Z,4.50
2022-10-09T07:56:47.164Z,4.30
2022-10-09T07:59:18.770Z,4.50
2022-10-09T08:01:49.564Z,4.20
2022-10-09T08:04:20.437Z,4.20
2022-10-09T08:06:51.257Z,4.40
2022-10-09T08:09:22.051Z,4.20
2022-10-09T08:11:52.859Z,4.50
2022-10-09T08:14:23.697Z,4.60
2022-10-09T08:16:54.475Z,4.60
2022-10-09T08:19:25.152Z,4.70
2022-10-09T08:21:58.132Z,4.60
2022-10-09T08:24:32.249Z,5.20
2022-10-09T08:27:03.132Z,4.20
2022-10-09T08:29:37.973Z,4.50
2022-10-09T08:32:10.973Z,4.50
2022-10-09T08:34:41.986Z,4.50
2022-10-09T08:37:13.228Z,4.60
2022-10-09T08:39:44.182Z,4.40
2022-10-09T08:42:29.075Z,3.70
2022-10-09T08:44:59.979Z,4.50
2022-10-09T08:47:39.360Z,4.20
2022-10-09T08:50:16.698Z,4.30
2022-10-09T08:52:52.887Z,4.10
2022-10-09T08:55:27.716Z,3.90
2022-10-09T08:58:04.359Z,4.90
2022-10-09T09:00:41.655Z,4.10
2022-10-09T09:03:43.474Z,4.40
2022-10-09T09:06:20.204Z,3.60
2022-10-09T09:08:56.829Z,4.00
2022-10-09T09:11:37.555Z,4.10
2022-10-09T09:14:24.191Z,3.80
2022-10-09T09:17:04.666Z,3.90
2022-10-09T09:19:49.109Z,3.60
2022-10-09T09:22:20.286Z,3.40
2022-10-09T09:24:55.158Z,3.20
2022-10-09T09:27:31.676Z,3.60
2022-10-09T09:30:06.587Z,3.60
2022-10-09T09:32:38.408Z,3.60
2022-10-09T09:35:20.568Z,3.90
2022-10-09T09:37:51.516Z,3.50
2022-10-09T09:40:36.190Z,3.40
2022-10-09T09:43:16.588Z,3.50
2022-10-09T09:45:48.186Z,3.10
2022-10-09T09:48:24.454Z,3.40
2022-10-09T09:51:16.165Z,3.20
2022-10-09T09:53:49.838Z,2.70
2022-10-09T09:56:22.020Z,3.10
2022-10-09T09:58:54.111Z,3.00
2022-10-09T10:01:27.463Z,3.10
2022-10-09T10:04:01.183Z,3.00
2022-10-09T10:06:35.249Z,2.90
2022-10-09T10:09:15.180Z,2.70
2022-10-09T10:11:49.461Z,2.90
2022-10-09T10:14:20.576Z,3.00
2022-10-09T10:16:54.214Z,2.80
2022-10-09T10:22:01.200Z,2.60
2022-10-09T10:24:36.908Z,2.40
2022-10-09T10:27:15.634Z,2.50
2022-10-09T10:29:49.170Z,2.90
2022-10-09T10:32:27.534Z,2.40
2022-10-09T10:35:03.819Z,2.90
2022-10-09T10:37:44.363Z,2.50
2022-10-09T10:40:22.876Z,2.30
2022-10-09T10:43:05.358Z,2.30
2022-10-09T10:45:40.908Z,2.40
2022-10-09T10:48:18.028Z,2.20
2022-10-09T10:51:00.168Z,2.50
2022-10-09T10:53:43.303Z,2.30
2022-10-09T10:56:23.937Z,2.30
2022-10-09T10:59:10.542Z,2.00
2022-10-09T11:01:48.299Z,2.40
2022-10-09T11:04:37.662Z,2.40
2022-10-09T11:07:20.144Z,2.40
2022-10-09T11:09:59.281Z,1.90
2022-10-09T11:12:48.194Z,2.40
2022-10-09T11:15:31.522Z,1.80
2022-10-09T11:18:18.719Z,2.00
2022-10-09T11:21:02.619Z,2.60
2022-10-09T11:23:49.633Z,1.70
2022-10-09T11:26:31.919Z,1.70
2022-10-09T11:29:05.854Z,2.60
2022-10-09T11:31:41.874Z,2.40
2022-10-09T11:34:21.423Z,2.00
2022-10-09T11:36:52.285Z,2.00
2022-10-09T11:39:25.916Z,2.00
2022-10-09T11:41:58.454Z,1.90
2022-10-09T11:44:39.840Z,1.60
2022-10-09T11:47:22.501Z,2.00
2022-10-09T11:50:10.594Z,1.90
2022-10-09T11:52:51.337Z,2.00
2022-10-09T11:55:26.024Z,2.10
2022-10-09T11:58:08.183Z,1.60
2022-10-09T12:00:39.701Z,1.50
2022-10-09T12:03:24.258Z,1.40
2022-10-09T12:06:03.833Z,1.50
2022-10-09T12:08:35.518Z,0.90
2022-10-09T12:11:18.248Z,1.30
2022-10-09T12:13:52.829Z,1.10
2022-10-09T12:16:37.023Z,1.60
2022-10-09T12:19:16.883Z,1.00
2022-10-09T12:21:53.175Z,1.30
2022-10-09T12:24:27.086Z,1.70
2022-10-09T12:27:03.260Z,1.50
2022-10-09T12:29:41.493Z,1.50
2022-10-09T12:32:18.626Z,1.30
2022-10-09T12:34:52.372Z,1.00
2022-10-09T12:37:32.922Z,1.10
2022-10-09T12:40:15.311Z,1.10
2022-10-09T12:42:47.930Z,1.20
2022-10-09T12:45:22.517Z,1.10
2022-10-09T12:47:55.605Z,1.10
2022-10-09T12:50:32.500Z,0.80
2022-10-09T12:53:06.428Z,0.70
2022-10-09T12:55:42.187Z,1.00
2022-10-09T12:58:20.469Z,0.80
2022-10-09T13:00:54.373Z,0.90
2022-10-09T13:03:34.125Z,1.20
2022-10-09T13:06:07.959Z,0.60
2022-10-09T13:08:40.693Z,0.70
2022-10-09T13:11:21.707Z,1.10
2022-10-09T13:13:54.989Z,0.80
2022-10-09T13:16:26.971Z,0.60
2022-10-09T13:19:02.914Z,0.60
2022-10-09T13:21:35.474Z,0.70
2022-10-09T13:24:14.359Z,0.60
2022-10-09T13:26:46.226Z,0.90
2022-10-09T13:29:17.339Z,0.70
2022-10-09T13:31:48.149Z,0.80
2022-10-09T13:34:19.005Z,0.80
2022-10-09T13:36:49.965Z,0.70
2022-10-09T13:39:20.726Z,0.80
2022-10-09T13:41:55.618Z,1.20
2022-10-09T13:44:26.888Z,0.70
2022-10-09T13:46:58.531Z,0.60
2022-10-09T13:49:29.259Z,0.60
2022-10-09T13:52:00.109Z,0.50
2022-10-09T13:54:31.256Z,0.60
2022-10-09T13:57:02.007Z,0.90
2022-10-09T13:59:33.128Z,0.70
2022-10-09T14:02:06.436Z,0.50
2022-10-09T14:04:37.160Z,0.80
2022-10-09T14:07:08.064Z,0.60
2022-10-09T14:09:39.072Z,0.70
2022-10-09T14:12:10.006Z,0.60
2022-10-09T14:14:40.759Z,0.90
2022-10-09T14:17:11.905Z,0.80
2022-10-09T14:19:42.643Z,0.90
2022-10-09T14:22:14.909Z,0.70
2022-10-09T14:24:45.627Z,0.60
2022-10-09T14:27:16.704Z,0.60
2022-10-09T14:29:49.298Z,0.70
2022-10-09T14:32:21.985Z,0.50
2022-10-09T14:34:53.222Z,0.70
2022-10-09T14:37:40.611Z,0.70
2022-10-09T14:40:13.948Z,0.90
2022-10-09T14:42:44.858Z,0.80
2022-10-09T14:45:15.796Z,0.60
2022-10-09T14:47:46.876Z,0.60
2022-10-09T14:50:17.890Z,0.70
2022-10-09T14:52:49.216Z,0.50
2022-10-09T14:55:20.533Z,0.60
2022-10-09T14:57:51.468Z,0.70
2022-10-09T15:00:22.383Z,0.70
2022-10-09T15:02:55.180Z,0.70
2022-10-09T15:05:28.405Z,0.70
2022-10-09T15:07:59.097Z,0.50
2022-10-09T15:10:30.050Z,0.90
2022-10-09T15:13:02.616Z,0.70
2022-10-09T15:15:33.382Z,0.80
2022-10-09T15:18:04.421Z,0.70
2022-10-09T15:20:35.683Z,0.50
2022-10-09T15:23:06.591Z,0.90
2022-10-09T15:25:37.431Z,0.60
2022-10-09T15:28:08.817Z,0.70
2022-10-09T15:30:44.685Z,0.70
2022-10-09T15:33:15.586Z,0.60
2022-10-09T15:35:46.406Z,0.60
2022-10-09T15:38:18.806Z,0.70
2022-10-09T15:40:51.994Z,0.60
2022-10-09T15:43:24.680Z,0.50
2022-10-09T15:46:01.754Z,0.80
2022-10-09T15:48:32.615Z,0.60
2022-10-09T15:51:07.521Z,1.30
2022-10-09T15:53:38.542Z,1.10
2022-10-09T15:56:10.740Z,1.00
2022-10-09T15:58:41.712Z,1.20
2022-10-09T16:01:14.528Z,0.80
2022-10-09T16:03:46.029Z,1.10
2022-10-09T16:06:19.743Z,0.70
2022-10-09T16:08:51.663Z,0.80
2022-10-09T16:11:25.159Z,0.60
2022-10-09T16:13:59.307Z,0.90
2022-10-09T16:16:30.676Z,1.00
2022-10-09T16:19:05.434Z,0.80
2022-10-09T16:21:36.570Z,0.90
2022-10-09T16:24:07.732Z,1.00
2022-10-09T16:26:38.436Z,0.80
2022-10-09T16:29:09.224Z,0.60
2022-10-09T16:31:40.211Z,0.80
2022-10-09T16:34:11.774Z,0.80
2022-10-09T16:36:42.510Z,1.00
2022-10-09T16:39:13.662Z,0.70
2022-10-09T16:41:44.565Z,0.90
2022-10-09T16:44:17.098Z,0.70
2022-10-09T16:46:48.048Z,0.80
2022-10-09T16:49:22.875Z,0.80
2022-10-09T16:51:56.050Z,1.00
2022-10-09T16:54:26.910Z,0.90
2022-10-09T16:56:58.447Z,1.20
2022-10-09T16:59:29.413Z,0.60
2022-10-09T17:02:02.402Z,0.70
2022-10-09T17:04:33.762Z,0.70
2022-10-09T17:07:04.590Z,0.60
2022-10-09T17:09:37.419Z,0.80
2022-10-09T17:12:10.419Z,0.70
2022-10-09T17:14:42.014Z,0.80
2022-10-09T17:17:14.953Z,0.80
2022-10-09T17:19:46.114Z,0.80
2022-10-09T17:22:17.374Z,1.00
2022-10-09T17:24:48.459Z,0.70
2022-10-09T17:27:20.005Z,1.10
2022-10-09T17:29:51.424Z,0.90
2022-10-09T17:32:23.921Z,0.80
2022-10-09T17:34:55.218Z,1.00
2022-10-09T17:37:26.336Z,1.10
2022-10-09T17:39:57.466Z,1.00
2022-10-09T17:42:28.826Z,0.90
2022-10-09T17:44:59.603Z,0.80
2022-10-09T17:47:30.853Z,0.70
2022-10-09T17:50:01.984Z,0.60
2022-10-09T17:52:32.902Z,1.00
2022-10-09T17:55:03.773Z,0.90
2022-10-09T17:57:34.725Z,1.00
2022-10-09T18:00:06.984Z,1.00
2022-10-09T18:02:38.250Z,1.30
2022-10-09T18:05:10.307Z,1.10
2022-10-09T18:07:41.463Z,1.00
2022-10-09T18:10:16.707Z,1.10
2022-10-09T18:12:48.405Z,1.00
2022-10-09T18:15:19.707Z,0.90
2022-10-09T18:17:51.078Z,1.10
2022-10-09T18:20:22.283Z,0.90
2022-10-09T18:22:53.936Z,0.90
2022-10-09T18:25:24.882Z,1.30
2022-10-09T18:27:55.933Z,1.20
2022-10-09T18:30:27.759Z,1.10
2022-10-09T18:32:58.967Z,1.10
2022-10-09T18:35:30.454Z,1.50
2022-10-09T18:38:01.339Z,1.30
2022-10-09T18:40:32.636Z,1.40
2022-10-09T18:43:03.768Z,2.00
2022-10-09T18:45:34.831Z,2.20
2022-10-09T18:48:06.972Z,1.90
2022-10-09T18:50:39.115Z,1.90
2022-10-09T18:53:10.919Z,1.80
2022-10-09T18:55:43.798Z,1.80
2022-10-09T18:58:16.239Z,2.20
2022-10-09T19:00:47.136Z,2.30
2022-10-09T19:03:18.124Z,1.70
2022-10-09T19:05:49.332Z,2.00
2022-10-09T19:08:20.333Z,1.70
2022-10-09T19:10:54.455Z,2.40
2022-10-09T19:13:25.357Z,1.70
2022-10-09T19:15:59.520Z,2.00
2022-10-09T19:18:30.533Z,2.20
2022-10-09T19:21:01.889Z,1.90
2022-10-09T19:23:33.399Z,1.70
2022-10-09T19:26:04.183Z,1.80
2022-10-09T19:28:37.957Z,1.90
2022-10-09T19:31:10.084Z,1.80
2022-10-09T19:33:41.981Z,1.90
2022-10-09T19:36:14.965Z,1.80
2022-10-09T19:38:46.038Z,1.70
2022-10-09T19:41:18.071Z,1.90
2022-10-09T19:43:49.057Z,1.90
2022-10-09T19:46:22.693Z,2.00
2022-10-09T19:48:54.316Z,1.80
2022-10-09T19:51:27.176Z,1.60
2022-10-09T19:53:59.243Z,1.60
2022-10-09T19:56:32.657Z,1.80
2022-10-09T19:59:05.270Z,1.30
2022-10-09T20:01:37.819Z,1.70
2022-10-09T20:04:10.540Z,1.50
2022-10-09T20:06:43.296Z,1.50
2022-10-09T20:09:15.011Z,1.50
2022-10-09T20:11:46.038Z,1.40
2022-10-09T20:14:17.221Z,1.50
2022-10-09T20:16:47.995Z,1.70
2022-10-09T20:19:18.745Z,1.50
2022-10-09T20:21:49.879Z,1.50
2022-10-09T20:24:20.800Z,1.70
2022-10-09T20:26:51.674Z,1.70
2022-10-09T20:29:22.617Z,1.90
2022-10-09T20:31:54.669Z,1.60
2022-10-09T20:34:27.000Z,1.50
2022-10-09T20:36:58.020Z,1.50
2022-10-09T20:39:28.963Z,1.70
2022-10-09T20:42:00.199Z,1.50
2022-10-09T20:44:30.995Z,1.40
2022-10-09T20:47:01.985Z,1.60
2022-10-09T20:49:32.780Z,1.90
2022-10-09T20:52:03.696Z,1.80
2022-10-09T20:54:34.361Z,1.30
2022-10-09T20:57:05.553Z,1.80
2022-10-09T20:59:36.270Z,1.50
2022-10-09T21:02:08.664Z,1.70
2022-10-09T21:04:39.406Z,1.70
2022-10-09T21:07:10.079Z,1.30
2022-10-09T21:09:40.772Z,1.50
2022-10-09T21:12:11.511Z,1.60
2022-10-09T21:14:42.145Z,1.60
2022-10-09T21:17:12.781Z,1.50
2022-10-09T21:19:43.425Z,1.80
2022-10-09T21:22:14.050Z,1.80
2022-10-09T21:24:45.099Z,1.60
2022-10-09T21:27:15.835Z,1.70
2022-10-09T21:29:46.745Z,1.50
2022-10-09T21:32:17.518Z,1.50
2022-10-09T21:34:48.385Z,1.50
2022-10-09T21:37:21.826Z,1.50
2022-10-09T21:39:53.446Z,1.50
2022-10-09T21:42:24.143Z,1.80
2022-10-09T21:44:54.750Z,1.30
2022-10-09T21:47:25.631Z,1.80
2022-10-09T21:49:56.757Z,1.80
2022-10-09T21:52:28.029Z,1.40
2022-10-09T21:54:58.680Z,1.50
2022-10-09T21:57:29.368Z,1.70
2022-10-09T22:00:00.035Z,1.60
2022-10-09T22:02:30.675Z,1.30
2022-10-09T22:05:01.485Z,1.80
2022-10-09T22:07:33.084Z,1.60
2022-10-09T22:10:03.942Z,1.50
2022-10-09T22:12:35.045Z,1.60
2022-10-09T22:15:06.873Z,1.60
2022-10-09T22:17:37.489Z,1.90
2022-10-09T22:20:09.957Z,2.00
2022-10-09T22:22:40.627Z,1.30
2022-10-09T22:25:12.090Z,2.10
2022-10-09T22:27:42.884Z,1.50
2022-10-09T22:30:15.105Z,1.30
2022-10-09T22:32:45.871Z,1.50
2022-10-09T22:35:16.484Z,1.60
2022-10-09T22:37:47.383Z,1.70
2022-10-09T22:40:18.689Z,1.50
2022-10-09T22:42:49.653Z,2.00
2022-10-09T22:45:20.655Z,1.60
2022-10-09T22:47:51.323Z,1.50
2022-10-09T22:50:22.062Z,1.70
2022-10-09T22:52:52.991Z,1.50
2022-10-09T22:55:23.791Z,1.50
2022-10-09T22:57:54.479Z,1.60
2022-10-09T23:00:25.217Z,1.90
2022-10-09T23:02:56.057Z,1.50
2022-10-09T23:05:27.608Z,1.20
2022-10-09T23:08:00.497Z,1.40
2022-10-09T23:10:31.219Z,1.40
2022-10-09T23:13:01.877Z,1.70
2022-10-09T23:15:32.173Z,1.20
2022-10-09T23:18:02.839Z,1.50
2022-10-09T23:20:36.449Z,1.20
2022-10-09T23:25:40.515Z,1.40
2022-10-09T23:28:11.148Z,1.50
2022-10-09T23:30:42.261Z,1.60
2022-10-09T23:33:13.003Z,1.50
2022-10-09T23:35:44.765Z,1.20
2022-10-09T23:38:15.368Z,1.70
2022-10-09T23:40:55.146Z,1.20
2022-10-09T23:43:26.785Z,1.30
2022-10-09T23:45:59.608Z,1.40
2022-10-09T23:48:31.329Z,1.50
2022-10-09T23:51:02.259Z,1.70
2022-10-09T23:53:33.399Z,1.50
2022-10-09T23:56:05.989Z,1.30
2022-10-09T23:58:37.263Z,1.20
